Time;durP1;ratioP1;P1;durP2;ratioP2;P2;SDS_P1;SDS_P2;PMS_P1;PMS_P2;Temp;Humidity;BMP_temperature;BMP_pressure;BME280_temperature;BME280_humidity;BME280_pressure;Samples;Min_cycle;Max_cycle;Signal;HPM_P1;HPM_P2
2023/10/06 00:00:42;;;;;;;6.15;2.25;;;14.10;99.90;;;;;;5101262;27;20120;-66
2023/10/06 00:03:11;;;;;;;7.72;2.35;;;14.00;99.90;;;;;;5100406;27;20127;-66
2023/10/06 00:05:38;;;;;;;4.65;1.90;;;14.00;99.90;;;;;;5105491;27;20386;-66
2023/10/06 00:08:40;;;;;;;6.00;1.95;;;14.00;99.90;;;;;;5107748;27;20114;-66
2023/10/06 00:10:55;;;;;;;10.40;2.63;;;13.90;99.90;;;;;;5102638;27;20048;-66
2023/10/06 00:13:31;;;;;;;7.68;2.25;;;14.00;99.90;;;;;;5131825;27;20036;-66
2023/10/06 00:15:58;;;;;;;8.18;2.83;;;14.00;99.90;;;;;;5133102;27;20040;-66
2023/10/06 00:18:27;;;;;;;7.63;3.13;;;14.00;99.90;;;;;;5105185;28;20036;-66
2023/10/06 00:20:57;;;;;;;9.25;3.20;;;14.00;99.90;;;;;;5103803;27;20039;-66
2023/10/06 00:23:27;;;;;;;7.05;2.53;;;14.00;99.90;;;;;;5135119;27;20552;-66
2023/10/06 00:25:57;;;;;;;9.93;2.67;;;14.00;99.90;;;;;;5135735;27;20032;-66
2023/10/06 00:28:32;;;;;;;10.18;3.08;;;14.00;99.90;;;;;;5099866;27;20061;-66
2023/10/06 00:31:06;;;;;;;7.55;3.38;;;14.00;99.90;;;;;;5118249;27;20068;-66
2023/10/06 00:33:32;;;;;;;5.60;2.72;;;14.00;99.90;;;;;;5101789;28;20621;-66
2023/10/06 00:36:11;;;;;;;8.63;3.08;;;14.00;99.90;;;;;;5116419;27;20036;-66
2023/10/06 00:38:37;;;;;;;7.97;2.88;;;14.00;99.90;;;;;;5102773;27;20075;-66
2023/10/06 00:41:09;;;;;;;6.68;3.40;;;14.00;99.90;;;;;;5134814;27;20067;-66
2023/10/06 00:43:36;;;;;;;6.35;2.72;;;14.00;99.90;;;;;;5103454;28;20040;-66
2023/10/06 00:46:07;;;;;;;10.05;2.92;;;14.00;99.90;;;;;;5103275;27;20381;-66
2023/10/06 00:48:53;;;;;;;10.68;3.67;;;14.10;99.90;;;;;;5134356;27;20032;-66
2023/10/06 00:51:22;;;;;;;6.93;2.85;;;14.10;99.90;;;;;;5135970;27;20788;-66
2023/10/06 00:53:51;;;;;;;9.32;3.10;;;14.10;99.90;;;;;;5101530;27;20039;-66
2023/10/06 00:56:23;;;;;;;9.68;3.95;;;14.00;99.90;;;;;;5132517;27;20119;-66
2023/10/06 00:58:49;;;;;;;5.78;3.45;;;14.00;99.90;;;;;;5106538;27;20067;-66
2023/10/06 01:01:19;;;;;;;11.90;4.07;;;14.10;99.90;;;;;;5130854;27;20031;-66
2023/10/06 01:03:49;;;;;;;8.75;3.60;;;14.10;99.90;;;;;;5131670;27;20043;-66
2023/10/06 01:06:17;;;;;;;11.75;4.82;;;14.10;99.90;;;;;;5103518;27;20141;-66
2023/10/06 01:08:52;;;;;;;7.68;3.88;;;14.10;99.90;;;;;;5101816;27;20055;-66
2023/10/06 01:11:26;;;;;;;6.65;3.97;;;14.10;99.90;;;;;;5101822;27;20035;-66
2023/10/06 01:13:56;;;;;;;6.60;3.80;;;14.10;99.90;;;;;;5103043;27;20474;-66
2023/10/06 01:16:35;;;;;;;6.82;3.63;;;14.10;99.90;;;;;;5099137;27;20072;-66
2023/10/06 01:19:15;;;;;;;7.80;4.25;;;14.10;99.90;;;;;;5134305;27;20040;-66
2023/10/06 01:21:46;;;;;;;8.98;4.80;;;14.10;99.90;;;;;;5134502;27;20040;-66
2023/10/06 01:24:13;;;;;;;8.48;4.40;;;14.10;99.90;;;;;;5102040;28;20036;-66
2023/10/06 01:26:42;;;;;;;8.60;4.57;;;14.10;99.90;;;;;;5102633;28;20040;-66
2023/10/06 01:29:10;;;;;;;8.80;4.65;;;14.10;99.90;;;;;;5100823;27;20036;-66
2023/10/06 01:31:40;;;;;;;10.43;4.13;;;14.10;99.90;;;;;;5100870;28;20031;-66
2023/10/06 01:34:11;;;;;;;12.02;5.30;;;14.10;99.90;;;;;;5100172;28;20093;-66
2023/10/06 01:36:37;;;;;;;7.43;4.45;;;14.10;99.90;;;;;;5100515;27;20047;-66
2023/10/06 01:39:04;;;;;;;9.63;5.25;;;14.10;99.90;;;;;;5113032;27;20101;-66
2023/10/06 01:41:34;;;;;;;8.10;3.88;;;14.10;99.90;;;;;;5100762;28;20083;-66
2023/10/06 01:44:12;;;;;;;13.52;4.38;;;14.10;99.90;;;;;;5104203;28;20126;-66
2023/10/06 01:46:38;;;;;;;8.00;3.70;;;14.10;99.90;;;;;;5100550;27;20127;-66
2023/10/06 01:49:04;;;;;;;10.98;4.53;;;14.10;99.90;;;;;;5099152;28;20036;-66
2023/10/06 01:51:38;;;;;;;5.35;3.53;;;14.00;99.90;;;;;;5099700;28;20035;-66
2023/10/06 01:54:12;;;;;;;9.63;4.82;;;14.10;99.90;;;;;;5100991;28;20031;-66
2023/10/06 01:56:44;;;;;;;9.57;4.00;;;14.00;99.90;;;;;;5099955;28;20050;-66
2023/10/06 01:59:11;;;;;;;11.43;4.45;;;14.10;99.90;;;;;;5134542;27;20040;-66
2023/10/06 02:01:40;;;;;;;7.40;4.28;;;14.10;99.90;;;;;;5096711;28;20051;-66
2023/10/06 02:04:09;;;;;;;9.43;3.83;;;14.00;99.90;;;;;;5099685;28;20047;-66
2023/10/06 02:06:35;;;;;;;9.30;4.43;;;14.10;99.90;;;;;;5098663;28;20072;-66
2023/10/06 02:09:05;;;;;;;7.60;4.20;;;14.00;99.90;;;;;;5098872;28;20133;-66
2023/10/06 02:11:34;;;;;;;11.18;4.53;;;14.10;99.90;;;;;;5101812;28;20085;-66
2023/10/06 02:13:59;;;;;;;12.13;4.47;;;14.10;99.90;;;;;;5101228;28;20040;-66
2023/10/06 02:16:26;;;;;;;10.35;4.65;;;14.10;99.90;;;;;;5104035;27;20400;-66
2023/10/06 02:18:56;;;;;;;8.27;4.00;;;14.10;99.90;;;;;;5105145;27;20051;-66
2023/10/06 02:21:24;;;;;;;9.60;4.28;;;14.10;99.90;;;;;;5105452;27;20031;-66
2023/10/06 02:23:51;;;;;;;9.18;4.13;;;14.10;99.90;;;;;;5107511;27;20054;-66
2023/10/06 02:26:17;;;;;;;9.63;5.25;;;14.10;99.90;;;;;;5101774;27;20155;-66
2023/10/06 02:28:48;;;;;;;9.43;4.65;;;14.10;99.90;;;;;;5137442;27;20169;-66
2023/10/06 02:31:14;;;;;;;11.88;4.55;;;14.10;99.90;;;;;;5104758;27;20066;-66
2023/10/06 02:33:41;;;;;;;9.75;4.60;;;14.10;99.90;;;;;;5105980;27;20035;-66
2023/10/06 02:36:23;;;;;;;8.23;4.60;;;14.20;99.90;;;;;;5102519;27;20032;-66
2023/10/06 02:38:50;;;;;;;10.50;4.60;;;14.20;99.90;;;;;;5105319;27;20035;-66
2023/10/06 02:41:20;;;;;;;11.32;4.80;;;14.20;99.90;;;;;;5103092;27;20035;-66
2023/10/06 02:43:50;;;;;;;13.52;4.88;;;14.20;99.90;;;;;;5104794;27;20061;-66
2023/10/06 02:46:20;;;;;;;13.35;4.00;;;14.20;99.90;;;;;;5120716;27;20067;-66
2023/10/06 02:48:48;;;;;;;10.57;5.00;;;14.20;99.90;;;;;;5104782;27;20054;-66
2023/10/06 02:51:29;;;;;;;13.20;5.50;;;14.20;99.90;;;;;;5103747;27;20079;-66
2023/10/06 02:54:09;;;;;;;8.82;4.28;;;14.20;99.90;;;;;;5104611;27;20495;-66
2023/10/06 02:56:34;;;;;;;10.68;5.30;;;14.20;99.90;;;;;;5105638;27;20505;-66
2023/10/06 02:59:08;;;;;;;14.02;5.32;;;14.30;99.90;;;;;;5105189;27;20031;-66
2023/10/06 03:01:38;;;;;;;12.82;5.70;;;14.20;99.90;;;;;;5099984;27;20058;-66
2023/10/06 03:04:07;;;;;;;11.77;5.30;;;14.20;99.90;;;;;;5090812;28;20035;-66
2023/10/06 03:06:33;;;;;;;10.48;5.53;;;14.10;99.90;;;;;;5102560;27;20035;-66
2023/10/06 03:09:06;;;;;;;12.82;5.25;;;14.20;99.90;;;;;;5135742;27;20369;-66
2023/10/06 03:11:49;;;;;;;18.08;5.80;;;14.10;99.90;;;;;;5105458;27;20050;-66
2023/10/06 03:14:23;;;;;;;10.25;5.32;;;14.00;99.90;;;;;;5106328;27;20086;-66
2023/10/06 03:16:51;;;;;;;10.98;5.90;;;14.10;99.90;;;;;;5101534;28;20043;-66
2023/10/06 03:19:21;;;;;;;9.07;4.90;;;14.00;99.90;;;;;;5103226;27;20078;-66
2023/10/06 03:21:48;;;;;;;14.45;6.25;;;14.00;99.90;;;;;;5103903;28;20432;-66
2023/10/06 03:24:30;;;;;;;9.60;4.72;;;14.00;99.90;;;;;;5105829;27;20050;-66
2023/10/06 03:26:57;;;;;;;10.20;4.85;;;14.00;99.90;;;;;;5107848;27;20549;-66
2023/10/06 03:29:43;;;;;;;10.02;5.32;;;13.90;99.90;;;;;;5117983;27;20036;-66
2023/10/06 03:32:13;;;;;;;14.95;5.88;;;14.00;99.90;;;;;;5106855;27;20131;-66
2023/10/06 03:34:39;;;;;;;9.55;6.03;;;13.90;99.90;;;;;;5107840;28;20043;-66
2023/10/06 03:37:09;;;;;;;12.20;5.65;;;13.90;99.90;;;;;;5086872;28;20039;-66
2023/10/06 03:39:47;;;;;;;12.88;6.47;;;13.90;99.90;;;;;;5103167;27;20433;-66
2023/10/06 03:42:17;;;;;;;11.73;5.70;;;13.90;99.90;;;;;;5104399;28;20039;-66
2023/10/06 03:44:45;;;;;;;12.63;5.20;;;13.80;99.90;;;;;;5105642;28;20040;-66
2023/10/06 03:47:10;;;;;;;9.38;5.72;;;13.90;99.90;;;;;;5102886;28;20043;-66
2023/10/06 03:49:37;;;;;;;13.70;5.65;;;13.90;99.90;;;;;;5103842;27;20028;-66
2023/10/06 03:52:04;;;;;;;11.32;5.68;;;13.90;99.90;;;;;;5103266;28;20035;-66
2023/10/06 03:54:30;;;;;;;11.20;6.00;;;13.90;99.90;;;;;;5107147;27;20028;-66
2023/10/06 03:56:55;;;;;;;13.75;6.63;;;13.90;99.90;;;;;;5106218;28;20494;-66
2023/10/06 03:59:23;;;;;;;9.82;5.35;;;13.80;99.90;;;;;;5106335;27;20092;-66
2023/10/06 04:01:51;;;;;;;11.13;5.30;;;13.80;99.90;;;;;;5102419;28;20047;-66
2023/10/06 04:04:22;;;;;;;11.43;5.43;;;13.90;99.90;;;;;;5101167;28;20435;-66
2023/10/06 04:06:48;;;;;;;13.15;6.35;;;13.90;99.90;;;;;;5104478;28;20495;-66
2023/10/06 04:09:27;;;;;;;12.05;5.03;;;13.80;99.90;;;;;;5089391;28;20073;-65
2023/10/06 04:11:53;;;;;;;10.73;5.15;;;13.80;99.90;;;;;;5102182;28;20478;-65
2023/10/06 04:14:20;;;;;;;15.20;6.18;;;13.80;99.90;;;;;;5106575;28;20035;-66
2023/10/06 04:16:46;;;;;;;9.73;5.05;;;13.80;99.90;;;;;;5104033;28;20389;-66
2023/10/06 04:19:15;;;;;;;9.43;4.82;;;13.80;99.90;;;;;;5101722;27;20049;-66
2023/10/06 04:21:42;;;;;;;9.38;4.47;;;13.80;99.90;;;;;;5102902;28;20088;-66
2023/10/06 04:24:08;;;;;;;11.18;5.25;;;14.10;99.90;;;;;;5104672;27;20051;-66
2023/10/06 04:26:33;;;;;;;10.70;5.25;;;13.90;99.90;;;;;;5103717;28;20134;-66
2023/10/06 04:28:59;;;;;;;9.30;4.38;;;13.80;99.90;;;;;;5101283;28;20122;-66
2023/10/06 04:31:25;;;;;;;9.38;4.10;;;13.80;99.90;;;;;;5103621;27;20062;-65
2023/10/06 04:33:50;;;;;;;11.23;5.00;;;13.80;99.90;;;;;;5134160;27;20040;-66
2023/10/06 04:36:20;;;;;;;9.90;4.78;;;13.80;99.90;;;;;;5104439;27;20054;-66
2023/10/06 04:38:46;;;;;;;7.80;4.47;;;13.80;99.90;;;;;;5136003;27;20071;-66
2023/10/06 04:41:11;;;;;;;10.27;4.07;;;13.80;99.90;;;;;;5103319;28;20474;-66
2023/10/06 04:43:44;;;;;;;9.20;4.20;;;13.70;99.90;;;;;;5104647;27;20072;-66
2023/10/06 04:46:10;;;;;;;10.70;5.13;;;13.70;99.90;;;;;;5103879;28;20032;-66
2023/10/06 04:48:36;;;;;;;9.38;4.43;;;13.70;99.90;;;;;;5105089;27;20047;-66
2023/10/06 04:51:06;;;;;;;10.90;4.97;;;13.70;99.90;;;;;;5102827;28;20027;-66
2023/10/06 04:53:35;;;;;;;11.18;4.50;;;13.70;99.90;;;;;;5104921;28;20051;-66
2023/10/06 04:56:06;;;;;;;6.75;4.40;;;13.70;99.90;;;;;;5100338;28;20635;-65
2023/10/06 04:58:36;;;;;;;9.18;4.20;;;13.70;99.90;;;;;;5119500;27;20070;-65
2023/10/06 05:01:02;;;;;;;9.10;4.13;;;13.70;99.90;;;;;;5105069;27;20052;-66
2023/10/06 05:03:40;;;;;;;14.05;4.88;;;13.70;99.90;;;;;;5105419;28;20043;-65
2023/10/06 05:06:18;;;;;;;13.18;4.65;;;13.70;99.90;;;;;;5104481;28;20046;-65
2023/10/06 05:08:47;;;;;;;9.90;4.95;;;13.80;99.90;;;;;;5129161;27;20051;-66
2023/10/06 05:11:14;;;;;;;11.18;4.50;;;13.70;99.90;;;;;;5100456;27;20043;-65
2023/10/06 05:13:40;;;;;;;10.43;3.90;;;13.80;99.90;;;;;;5103307;28;20046;-65
2023/10/06 05:16:05;;;;;;;10.57;4.93;;;13.70;99.90;;;;;;5103593;28;20397;-66
2023/10/06 05:18:33;;;;;;;11.38;4.50;;;13.80;99.90;;;;;;5103121;27;20040;-66
2023/10/06 05:20:58;;;;;;;7.45;4.03;;;13.80;99.90;;;;;;5106430;28;20612;-66
2023/10/06 05:23:26;;;;;;;11.10;4.55;;;13.70;99.90;;;;;;5107773;27;20126;-66
2023/10/06 05:25:52;;;;;;;10.82;4.82;;;13.80;99.90;;;;;;5102188;28;20138;-66
2023/10/06 05:28:18;;;;;;;10.00;4.45;;;13.80;99.90;;;;;;5102056;28;20116;-66
2023/10/06 05:30:44;;;;;;;11.55;5.63;;;13.80;99.90;;;;;;5105194;27;20042;-65
2023/10/06 05:33:10;;;;;;;11.43;5.35;;;13.80;99.90;;;;;;5133403;27;20118;-65
2023/10/06 05:35:39;;;;;;;14.48;5.00;;;13.80;99.90;;;;;;5102083;28;20580;-66
2023/10/06 05:38:08;;;;;;;9.98;4.95;;;13.80;99.90;;;;;;5104529;28;20093;-66
2023/10/06 05:40:37;;;;;;;11.25;4.75;;;13.90;99.90;;;;;;5101424;28;20040;-66
2023/10/06 05:43:04;;;;;;;8.43;4.28;;;13.80;99.90;;;;;;5134008;27;20043;-65
2023/10/06 05:45:30;;;;;;;12.05;5.25;;;13.80;99.90;;;;;;5099088;28;20035;-66
2023/10/06 05:48:06;;;;;;;9.50;4.85;;;13.90;99.90;;;;;;5111367;27;20756;-66
2023/10/06 05:50:35;;;;;;;12.98;5.65;;;13.90;99.90;;;;;;5129579;27;20119;-66
2023/10/06 05:53:04;;;;;;;8.38;4.70;;;13.90;99.90;;;;;;5100195;28;20039;-66
2023/10/06 05:55:30;;;;;;;9.18;4.78;;;13.90;99.90;;;;;;5104659;27;20403;-66
2023/10/06 05:57:58;;;;;;;10.98;4.72;;;13.90;99.90;;;;;;5099595;28;20048;-66
2023/10/06 06:00:29;;;;;;;10.27;4.70;;;14.00;99.90;;;;;;5094940;28;20039;-66
2023/10/06 06:02:59;;;;;;;12.05;4.85;;;14.00;99.90;;;;;;5098584;28;20063;-65
2023/10/06 06:05:29;;;;;;;9.70;4.30;;;14.00;99.90;;;;;;5097501;28;20478;-65
2023/10/06 06:08:00;;;;;;;8.50;4.53;;;14.00;99.90;;;;;;5095857;28;20043;-66
2023/10/06 06:10:29;;;;;;;12.50;5.00;;;14.00;99.90;;;;;;5103134;28;20115;-65
2023/10/06 06:13:00;;;;;;;8.55;5.18;;;14.10;99.90;;;;;;5131437;27;21011;-65
2023/10/06 06:15:26;;;;;;;8.40;5.00;;;14.10;99.90;;;;;;5101219;28;20844;-65
2023/10/06 06:17:58;;;;;;;11.27;4.97;;;14.10;99.90;;;;;;5101386;28;20047;-66
2023/10/06 06:20:24;;;;;;;13.75;5.10;;;14.10;99.90;;;;;;5101465;28;20394;-66
2023/10/06 06:22:53;;;;;;;14.48;5.63;;;14.20;99.90;;;;;;5102831;28;20131;-66
2023/10/06 06:25:22;;;;;;;10.45;5.55;;;14.10;99.90;;;;;;5106159;28;20035;-66
2023/10/06 06:27:50;;;;;;;10.60;4.93;;;14.20;99.90;;;;;;5101687;28;20051;-66
2023/10/06 06:30:18;;;;;;;13.45;5.80;;;14.20;99.90;;;;;;5102958;28;20044;-66
2023/10/06 06:32:48;;;;;;;10.93;4.88;;;14.20;99.90;;;;;;5101246;28;20411;-66
2023/10/06 06:35:15;;;;;;;14.65;5.60;;;14.20;99.90;;;;;;5105002;28;20056;-65
2023/10/06 06:37:43;;;;;;;12.55;5.45;;;14.30;99.90;;;;;;5101279;28;20046;-66
2023/10/06 06:40:13;;;;;;;8.02;4.55;;;14.30;99.90;;;;;;5099551;28;20125;-66
2023/10/06 06:42:40;;;;;;;9.40;4.90;;;14.30;99.90;;;;;;5101980;28;20047;-66
2023/10/06 06:45:06;;;;;;;8.55;4.93;;;14.40;99.90;;;;;;5100630;28;20082;-66
2023/10/06 06:47:32;;;;;;;11.63;5.53;;;14.30;99.90;;;;;;5100726;28;20043;-66
2023/10/06 06:50:00;;;;;;;12.90;5.75;;;14.30;99.90;;;;;;5102762;28;20633;-65
2023/10/06 06:52:26;;;;;;;8.18;4.97;;;14.30;99.90;;;;;;5101966;28;20044;-66
2023/10/06 06:54:51;;;;;;;8.55;5.40;;;14.30;99.90;;;;;;5105096;28;20031;-66
2023/10/06 06:57:17;;;;;;;10.57;5.00;;;14.30;99.90;;;;;;5099783;28;20051;-66
2023/10/06 06:59:44;;;;;;;9.13;5.60;;;14.30;99.90;;;;;;5101918;28;20055;-65
2023/10/06 07:02:10;;;;;;;10.52;5.30;;;14.40;99.90;;;;;;5135075;27;20043;-66
2023/10/06 07:04:36;;;;;;;12.20;5.38;;;14.40;99.90;;;;;;5106512;28;20539;-66
2023/10/06 07:07:01;;;;;;;8.73;5.30;;;14.40;99.90;;;;;;5105003;28;20051;-66
2023/10/06 07:09:27;;;;;;;8.60;5.15;;;14.40;99.90;;;;;;5105479;27;20114;-66
2023/10/06 07:11:56;;;;;;;12.35;5.55;;;14.50;99.90;;;;;;5120669;27;20032;-66
2023/10/06 07:14:22;;;;;;;9.57;5.45;;;14.50;99.90;;;;;;5108446;27;20496;-66
2023/10/06 07:16:47;;;;;;;10.60;5.05;;;14.40;99.90;;;;;;5106698;27;20047;-66
2023/10/06 07:19:17;;;;;;;9.18;5.28;;;14.40;99.90;;;;;;5106304;27;20044;-66
2023/10/06 07:21:43;;;;;;;9.38;4.55;;;14.50;99.90;;;;;;5105472;28;20122;-66
2023/10/06 07:24:13;;;;;;;9.38;4.80;;;14.40;99.90;;;;;;5107463;27;20044;-66
2023/10/06 07:26:42;;;;;;;8.30;4.97;;;14.40;99.90;;;;;;5105699;27;20126;-66
2023/10/06 07:29:08;;;;;;;8.32;4.90;;;14.50;99.90;;;;;;5106441;28;20036;-66
2023/10/06 07:31:34;;;;;;;9.98;5.13;;;14.40;99.90;;;;;;5105112;27;20065;-66
2023/10/06 07:34:02;;;;;;;14.40;5.13;;;14.40;99.90;;;;;;5103841;27;20043;-66
2023/10/06 07:36:29;;;;;;;9.73;4.80;;;14.50;99.90;;;;;;5101678;27;20767;-66
2023/10/06 07:38:54;;;;;;;10.18;4.63;;;14.50;99.90;;;;;;5103052;28;20420;-66
2023/10/06 07:41:25;;;;;;;15.57;5.13;;;14.50;99.90;;;;;;5103070;27;20483;-66
2023/10/06 07:43:51;;;;;;;10.10;4.50;;;14.60;99.90;;;;;;5107174;27;20095;-65
2023/10/06 07:46:17;;;;;;;10.15;4.75;;;14.60;99.90;;;;;;5096859;28;20393;-66
2023/10/06 07:48:45;;;;;;;7.53;4.82;;;14.60;99.90;;;;;;5101047;27;20043;-65
2023/10/06 07:51:16;;;;;;;12.43;5.05;;;14.60;99.90;;;;;;5101079;27;20047;-66
2023/10/06 07:53:43;;;;;;;12.73;5.63;;;14.70;99.90;;;;;;5097184;28;20052;-66
2023/10/06 07:56:09;;;;;;;10.50;4.75;;;14.70;99.90;;;;;;5100588;27;20061;-66
2023/10/06 07:58:41;;;;;;;10.73;5.85;;;14.70;99.90;;;;;;5095912;27;20044;-65
2023/10/06 08:01:08;;;;;;;10.05;5.20;;;14.80;99.90;;;;;;5133117;27;20047;-65
2023/10/06 08:03:39;;;;;;;11.30;5.55;;;14.80;99.90;;;;;;5104132;27;20038;-66
2023/10/06 08:06:06;;;;;;;11.70;5.13;;;14.80;99.90;;;;;;5098615;28;20043;-66
2023/10/06 08:08:33;;;;;;;9.93;4.80;;;14.80;99.90;;;;;;5098172;28;20047;-66
2023/10/06 08:11:01;;;;;;;11.70;5.47;;;14.90;99.90;;;;;;5099062;28;20750;-66
2023/10/06 08:13:28;;;;;;;9.85;4.60;;;14.90;99.90;;;;;;5100498;27;20115;-66
2023/10/06 08:15:54;;;;;;;9.75;4.40;;;14.90;99.90;;;;;;5097909;27;20039;-66
2023/10/06 08:18:19;;;;;;;13.63;5.55;;;14.90;99.90;;;;;;5097017;27;20062;-66
2023/10/06 08:20:46;;;;;;;11.98;4.75;;;15.00;99.90;;;;;;5130475;27;20043;-66
2023/10/06 08:23:12;;;;;;;16.35;4.75;;;15.00;99.90;;;;;;5083564;28;20130;-66
2023/10/06 08:25:37;;;;;;;9.07;4.68;;;15.00;99.90;;;;;;5100380;27;20052;-66
2023/10/06 08:28:05;;;;;;;12.77;5.45;;;15.10;99.90;;;;;;5098648;28;20490;-66
2023/10/06 08:30:32;;;;;;;9.25;5.05;;;15.20;99.90;;;;;;5099361;27;20044;-66
2023/10/06 08:32:59;;;;;;;8.88;4.25;;;15.20;99.90;;;;;;5098749;27;20079;-66
2023/10/06 08:35:26;;;;;;;7.93;4.47;;;15.30;99.90;;;;;;5099560;27;20497;-66
2023/10/06 08:37:52;;;;;;;14.18;5.35;;;15.40;99.90;;;;;;5099480;27;20043;-66
2023/10/06 08:40:22;;;;;;;15.85;4.85;;;15.40;99.90;;;;;;5102370;27;20039;-66
2023/10/06 08:42:54;;;;;;;8.90;4.30;;;15.40;99.90;;;;;;5087837;28;20053;-66
2023/10/06 08:45:21;;;;;;;11.63;5.53;;;15.50;99.90;;;;;;5131806;27;20050;-66
2023/10/06 08:47:48;;;;;;;10.18;4.25;;;15.50;99.90;;;;;;5102668;27;20039;-66
2023/10/06 08:50:16;;;;;;;8.95;4.72;;;15.60;99.90;;;;;;5102990;27;20118;-65
2023/10/06 08:52:45;;;;;;;11.55;5.15;;;15.60;99.90;;;;;;5097965;28;20461;-66
2023/10/06 08:55:15;;;;;;;8.88;5.50;;;15.60;99.90;;;;;;5099704;27;20648;-66
2023/10/06 08:57:45;;;;;;;13.88;5.45;;;15.60;99.90;;;;;;5100726;27;20044;-66
2023/10/06 09:00:13;;;;;;;13.85;6.10;;;15.70;99.90;;;;;;5097559;27;20048;-66
2023/10/06 09:02:39;;;;;;;17.10;4.90;;;15.70;99.90;;;;;;5100579;27;20047;-66
2023/10/06 09:05:11;;;;;;;9.68;4.00;;;15.70;99.90;;;;;;5103432;27;20039;-66
2023/10/06 09:07:37;;;;;;;11.43;4.72;;;15.80;99.90;;;;;;5126588;27;20494;-66
2023/10/06 09:10:17;;;;;;;15.32;6.20;;;15.80;99.90;;;;;;5095700;27;20184;-66
2023/10/06 09:12:45;;;;;;;10.25;4.75;;;15.90;99.90;;;;;;5128778;27;20051;-66
2023/10/06 09:15:21;;;;;;;10.05;4.78;;;15.90;99.90;;;;;;5098569;27;20040;-66
2023/10/06 09:17:46;;;;;;;12.73;5.00;;;16.00;99.90;;;;;;5097697;27;20052;-66
2023/10/06 09:20:12;;;;;;;8.73;4.20;;;16.10;99.90;;;;;;5100427;28;20042;-66
2023/10/06 09:22:45;;;;;;;10.45;4.72;;;16.20;99.90;;;;;;5127599;27;20398;-66
2023/10/06 09:25:10;;;;;;;12.02;5.05;;;16.30;99.90;;;;;;5104855;27;20713;-66
2023/10/06 09:27:37;;;;;;;10.25;5.03;;;16.40;99.90;;;;;;5099129;27;20510;-66
2023/10/06 09:30:11;;;;;;;8.90;4.90;;;16.50;99.90;;;;;;5096741;27;20035;-66
2023/10/06 09:32:38;;;;;;;9.25;4.07;;;16.60;99.90;;;;;;5100337;27;20050;-66
2023/10/06 09:35:23;;;;;;;12.27;4.88;;;16.70;99.90;;;;;;5095483;28;20130;-66
2023/10/06 09:37:51;;;;;;;6.28;3.92;;;16.90;99.90;;;;;;5095458;28;20043;-66
2023/10/06 09:40:23;;;;;;;6.93;3.80;;;16.90;99.90;;;;;;5100438;27;20104;-66
2023/10/06 09:42:54;;;;;;;15.88;4.70;;;16.90;99.90;;;;;;5098645;28;20051;-66
2023/10/06 09:45:24;;;;;;;7.95;3.70;;;17.00;99.90;;;;;;5100542;28;20035;-66
2023/10/06 09:47:56;;;;;;;9.73;4.63;;;17.10;99.90;;;;;;5129576;27;20040;-66
2023/10/06 09:50:22;;;;;;;10.98;5.15;;;17.20;99.90;;;;;;5097426;27;20485;-66
2023/10/06 09:52:49;;;;;;;11.00;4.45;;;17.30;99.90;;;;;;5097876;27;20181;-66
2023/10/06 09:55:21;;;;;;;10.20;4.95;;;17.30;99.90;;;;;;5130186;27;20036;-66
2023/10/06 09:57:50;;;;;;;10.57;3.45;;;17.30;99.90;;;;;;5098335;28;20372;-66
2023/10/06 10:00:19;;;;;;;12.32;4.18;;;17.40;99.90;;;;;;5095655;27;20055;-66
2023/10/06 10:02:49;;;;;;;12.23;4.32;;;17.40;99.90;;;;;;5096904;28;20051;-66
2023/10/06 10:05:18;;;;;;;9.13;3.78;;;17.40;99.90;;;;;;5098881;28;20070;-66
2023/10/06 10:07:46;;;;;;;8.13;3.83;;;17.50;99.90;;;;;;5096080;28;20085;-66
2023/10/06 10:10:13;;;;;;;10.07;4.88;;;17.70;99.90;;;;;;5096685;28;20043;-66
2023/10/06 10:13:19;;;;;;;9.07;3.72;;;17.80;99.90;;;;;;5095185;28;20098;-66
2023/10/06 10:16:30;;;;;;;9.35;3.72;;;17.90;99.90;;;;;;5098567;28;20093;-66
2023/10/06 10:19:04;;;;;;;12.70;4.75;;;18.00;99.90;;;;;;5095930;27;20105;-66
2023/10/06 10:21:34;;;;;;;9.18;3.67;;;18.10;99.90;;;;;;5097578;28;20082;-66
2023/10/06 10:24:05;;;;;;;9.13;3.45;;;18.20;99.90;;;;;;5099459;28;20043;-66
2023/10/06 10:26:35;;;;;;;7.50;3.00;;;18.30;99.90;;;;;;5102062;28;20130;-66
2023/10/06 10:29:12;;;;;;;10.13;3.25;;;18.40;99.90;;;;;;5102214;28;20043;-65
2023/10/06 10:31:50;;;;;;;6.93;3.15;;;18.50;99.90;;;;;;5130787;27;20055;-66
2023/10/06 10:34:20;;;;;;;8.15;3.63;;;18.50;99.90;;;;;;5094310;28;20047;-66
2023/10/06 10:36:48;;;;;;;14.80;3.42;;;18.50;99.90;;;;;;5115027;27;20109;-66
2023/10/06 10:39:17;;;;;;;11.20;3.45;;;18.40;99.90;;;;;;5102134;28;20097;-66
2023/10/06 10:41:45;;;;;;;9.90;3.92;;;18.40;99.90;;;;;;5101366;27;20400;-66
2023/10/06 10:44:14;;;;;;;9.80;3.35;;;18.50;99.90;;;;;;5098419;27;20516;-66
2023/10/06 10:46:50;;;;;;;10.48;3.70;;;18.50;99.90;;;;;;5099225;28;20590;-66
2023/10/06 10:49:22;;;;;;;9.68;3.45;;;18.50;99.90;;;;;;5101372;28;20490;-66
2023/10/06 10:51:58;;;;;;;11.60;4.03;;;18.40;99.90;;;;;;5098192;28;20137;-66
2023/10/06 10:54:27;;;;;;;8.00;3.25;;;18.40;99.90;;;;;;5097963;27;20036;-66
2023/10/06 10:57:01;;;;;;;8.98;3.65;;;18.30;99.90;;;;;;5098709;28;20413;-66
2023/10/06 11:02:52;;;;;;;;;;;18.30;99.90;;;;;;5132985;27;20055;-66
2023/10/06 11:05:22;;;;;;;11.35;3.85;;;18.20;99.90;;;;;;5097652;27;19972;-66
2023/10/06 11:08:01;;;;;;;11.20;3.75;;;18.30;99.90;;;;;;5089969;27;20126;-66
2023/10/06 11:10:28;;;;;;;10.95;3.05;;;18.30;99.90;;;;;;5097504;28;20044;-66
2023/10/06 11:13:13;;;;;;;6.70;2.50;;;18.40;99.90;;;;;;5099034;28;20126;-66
2023/10/06 11:15:39;;;;;;;11.02;3.72;;;18.40;99.90;;;;;;5098165;27;20051;-66
2023/10/06 11:18:06;;;;;;;10.40;3.10;;;18.30;99.90;;;;;;5097144;28;21373;-66
2023/10/06 11:20:36;;;;;;;10.55;3.30;;;18.30;99.90;;;;;;5097038;28;20135;-66
2023/10/06 11:23:03;;;;;;;11.70;3.97;;;18.30;99.90;;;;;;5095621;28;20051;-66
2023/10/06 11:25:32;;;;;;;5.88;3.15;;;18.20;99.90;;;;;;5098077;28;20090;-66
2023/10/06 11:28:12;;;;;;;10.65;3.83;;;18.30;99.90;;;;;;5098161;27;20067;-66
2023/10/06 11:30:40;;;;;;;7.75;3.67;;;18.30;99.90;;;;;;5099787;27;20112;-66
2023/10/06 11:33:11;;;;;;;7.65;2.83;;;18.30;99.90;;;;;;5095082;28;20113;-66
2023/10/06 11:35:40;;;;;;;8.10;3.80;;;18.30;99.90;;;;;;5098715;27;20062;-66
2023/10/06 11:38:11;;;;;;;12.43;3.83;;;18.30;99.90;;;;;;5093322;28;20047;-66
2023/10/06 11:40:37;;;;;;;12.02;3.85;;;18.20;99.90;;;;;;5098921;27;20056;-66
2023/10/06 11:43:14;;;;;;;11.80;3.75;;;18.30;99.90;;;;;;5097921;28;20039;-66
2023/10/06 11:45:43;;;;;;;9.68;3.50;;;18.30;99.90;;;;;;5098606;27;20051;-66
2023/10/06 11:48:28;;;;;;;8.85;2.80;;;18.40;99.90;;;;;;5110181;27;20148;-66
2023/10/06 11:51:01;;;;;;;10.20;3.92;;;18.50;99.90;;;;;;5100282;27;20055;-66
2023/10/06 11:53:27;;;;;;;10.60;3.60;;;18.70;99.90;;;;;;5103728;28;20398;-66
2023/10/06 11:56:22;;;;;;;9.20;3.22;;;18.90;99.90;;;;;;5104687;27;20059;-66
2023/10/06 11:58:48;;;;;;;8.32;3.75;;;19.10;99.90;;;;;;5104369;27;20405;-66
2023/10/06 12:01:36;;;;;;;6.60;2.65;;;19.20;99.90;;;;;;5135540;27;20043;-66
2023/10/06 12:04:04;;;;;;;10.07;3.45;;;19.30;99.90;;;;;;5103115;28;20520;-66
2023/10/06 12:06:42;;;;;;;9.18;2.78;;;19.40;99.90;;;;;;5103474;27;20118;-66
2023/10/06 12:09:12;;;;;;;9.38;3.30;;;19.40;99.90;;;;;;5100541;28;20074;-66
2023/10/06 12:11:38;;;;;;;6.35;3.47;;;19.40;99.90;;;;;;5102377;28;20092;-66
2023/10/06 12:14:04;;;;;;;9.75;4.00;;;19.40;99.90;;;;;;5102388;28;20081;-66
2023/10/06 12:16:30;;;;;;;9.40;3.53;;;19.50;99.90;;;;;;5098483;28;20028;-66
2023/10/06 12:18:55;;;;;;;8.30;3.95;;;19.40;99.90;;;;;;5085866;28;20039;-66
2023/10/06 12:21:21;;;;;;;7.05;2.95;;;19.40;99.90;;;;;;5098468;27;20517;-67
2023/10/06 12:23:47;;;;;;;10.95;3.45;;;19.50;99.90;;;;;;5103458;27;20400;-66
2023/10/06 12:26:13;;;;;;;7.75;3.13;;;19.50;99.90;;;;;;5101849;27;20039;-66
2023/10/06 12:28:42;;;;;;;15.25;3.53;;;19.50;99.90;;;;;;5103981;27;20043;-66
2023/10/06 12:31:08;;;;;;;13.10;4.20;;;19.50;99.90;;;;;;5100867;28;20044;-66
2023/10/06 12:33:34;;;;;;;10.40;3.90;;;19.40;99.90;;;;;;5103310;28;20393;-67
2023/10/06 12:36:00;;;;;;;15.30;3.47;;;19.50;99.90;;;;;;5104179;27;20032;-66
2023/10/06 12:38:30;;;;;;;10.52;4.30;;;19.40;99.90;;;;;;5101494;28;20069;-66
2023/10/06 12:40:55;;;;;;;7.70;3.30;;;19.50;99.90;;;;;;5100375;28;20040;-66
2023/10/06 12:43:21;;;;;;;8.55;3.13;;;19.50;99.90;;;;;;5134843;27;20487;-66
2023/10/06 12:45:47;;;;;;;8.48;3.38;;;19.50;99.90;;;;;;5106628;27;20135;-66
2023/10/06 12:48:13;;;;;;;8.85;3.05;;;19.50;99.90;;;;;;5097226;27;20043;-66
2023/10/06 12:50:42;;;;;;;10.23;2.83;;;19.50;99.90;;;;;;5102564;28;20503;-66
2023/10/06 12:53:09;;;;;;;11.40;3.22;;;19.50;99.90;;;;;;5132436;27;20046;-66
2023/10/06 12:55:36;;;;;;;7.32;2.97;;;19.60;99.90;;;;;;5101953;28;20032;-66
2023/10/06 12:58:01;;;;;;;8.05;2.47;;;19.60;99.90;;;;;;5101702;28;20478;-66